Farmingdale, Maine
Current Conditions -  °F | °C
As of 5:53 PM on Wednesday 22 Oct 2014 (Local Time) from KAUG Reporting Station
Haze Haze  
Wind Chill: 37°   Ceiling: 1100
Heat Index: 45°   Visibility: 6mi
Dew Point: 43°   Wind: 21mph
Humidity: 93%   Direction: 30°NNE
Pressure: 30.13"   Gusts: 38mph
Location:  44.25°N, 69.78°W
Report Text: KAUG 222153Z AUTO 03018G33KT 6SM BR OVC011 07/06 A3013 RMK AO2 PK WND 04036/2115 RAE07 SLP204 P0000 T00720061
Loading
Personal Weather Stations






























Interactive Weather Map
Tropical Storm Tracking
New forecast layout! Learn more

10-Day Weather Forecast

Advertisements
Track Severe Weather on mobile